Time;durP1;ratioP1;P1;durP2;ratioP2;P2;SDS_P1;SDS_P2;PMS_P1;PMS_P2;Temp;Humidity;BMP_temperature;BMP_pressure;BME280_temperature;BME280_humidity;BME280_pressure;Samples;Min_cycle;Max_cycle;Signal;HPM_P1;HPM_P2
2022/11/22 00:01:09;;;;;;;;;3.00;1.00;;;;;7.74;69.85;99224.22;5100099;27;45385;-54
2022/11/22 00:03:34;;;;;;;;;2.00;1.00;;;;;7.71;70.40;99217.44;5099792;27;46198;-52
2022/11/22 00:06:00;;;;;;;;;6.00;2.00;;;;;7.72;70.19;99207.69;5099521;27;45318;-55
2022/11/22 00:08:25;;;;;;;;;1.00;1.00;;;;;7.66;70.42;99217.09;5099680;27;45354;-53
2022/11/22 00:10:51;;;;;;;;;5.00;0.67;;;;;7.64;70.82;99216.44;5099502;27;45319;-54
2022/11/22 00:13:17;;;;;;;;;5.33;1.33;;;;;7.62;70.61;99228.16;5099907;27;45434;-53
2022/11/22 00:15:43;;;;;;;;;1.00;1.00;;;;;7.58;71.14;99229.50;5099307;27;45329;-54
2022/11/22 00:18:08;;;;;;;;;4.00;1.00;;;;;7.48;70.37;99222.53;5099221;27;45232;-53
2022/11/22 00:20:34;;;;;;;;;1.00;1.00;;;;;7.55;70.33;99228.03;5099586;27;45410;-52
2022/11/22 00:22:59;;;;;;;;;2.00;1.00;;;;;7.57;71.04;99231.31;5099607;27;45448;-54
2022/11/22 00:25:25;;;;;;;;;2.67;1.67;;;;;7.56;70.99;99228.84;5099239;27;47163;-54
2022/11/22 00:27:50;;;;;;;;;0.67;0.67;;;;;7.54;70.49;99220.22;5099343;27;45659;-53
2022/11/22 00:30:16;;;;;;;;;5.33;4.00;;;;;7.52;71.37;99223.03;5098586;27;45325;-53
2022/11/22 00:32:41;;;;;;;;;4.00;1.33;;;;;7.45;71.18;99207.00;5099520;27;45589;-55
2022/11/22 00:35:07;;;;;;;;;1.00;1.00;;;;;7.48;71.29;99216.44;5099036;27;46021;-54
2022/11/22 00:37:32;;;;;;;;;7.00;2.00;;;;;7.44;70.99;99202.69;5099032;27;45379;-54
2022/11/22 00:39:57;;;;;;;;;2.00;1.00;;;;;7.41;71.25;99205.66;5099167;27;45459;-50
2022/11/22 00:42:23;;;;;;;;;2.00;2.00;;;;;7.41;71.53;99210.94;5099191;27;45317;-53
2022/11/22 00:44:48;;;;;;;;;0.00;0.00;;;;;7.40;71.21;99213.78;5098807;27;46183;-52
2022/11/22 00:47:13;;;;;;;;;4.00;1.00;;;;;7.35;70.74;99210.78;5098811;27;45467;-54
2022/11/22 00:49:39;;;;;;;;;2.50;2.00;;;;;7.35;70.73;99221.38;5099021;27;45440;-51
2022/11/22 00:52:04;;;;;;;;;1.75;1.75;;;;;7.35;70.60;99216.09;5099088;27;45397;-52
2022/11/22 00:54:29;;;;;;;;;5.00;2.00;;;;;7.34;70.75;99206.50;5098193;27;46664;-53
2022/11/22 00:56:55;;;;;;;;;1.00;0.33;;;;;7.31;70.82;99220.03;5098738;27;45268;-54
2022/11/22 00:59:20;;;;;;;;;2.33;1.00;;;;;7.30;70.73;99218.41;5097550;27;45622;-54
2022/11/22 01:01:45;;;;;;;;;1.00;1.00;;;;;7.27;70.95;99221.38;5099101;27;45488;-55
2022/11/22 01:04:11;;;;;;;;;1.00;1.00;;;;;7.24;70.98;99223.31;5098549;27;46323;-54
2022/11/22 01:06:36;;;;;;;;;2.00;0.00;;;;;7.23;70.91;99226.16;5098665;27;45366;-54
2022/11/22 01:09:02;;;;;;;;;4.00;1.00;;;;;7.20;71.18;99216.72;5097405;27;45428;-57
2022/11/22 01:11:27;;;;;;;;;1.00;1.00;;;;;7.20;71.42;99224.63;5098701;27;45459;-55
2022/11/22 01:13:52;;;;;;;;;4.00;2.00;;;;;7.19;71.00;99222.16;5097239;27;45403;-55
2022/11/22 01:16:18;;;;;;;;;2.67;0.00;;;;;7.19;70.92;99219.53;5098428;27;45252;-54
2022/11/22 01:18:44;;;;;;;;;4.00;1.00;;;;;7.16;70.79;99220.69;5098835;27;45976;-54
2022/11/22 01:21:10;;;;;;;;;3.00;1.00;;;;;7.12;70.81;99216.72;5098653;27;45374;-54
2022/11/22 01:23:36;;;;;;;;;2.00;2.00;;;;;7.08;71.27;99207.44;5098301;27;46007;-55
2022/11/22 01:26:02;;;;;;;;;1.33;0.33;;;;;6.96;70.96;99200.81;5098008;27;45404;-54
2022/11/22 01:28:27;;;;;;;;;6.00;3.00;;;;;7.05;70.70;99210.41;5098284;27;45401;-55
2022/11/22 01:30:53;;;;;;;;;5.25;0.50;;;;;7.08;72.32;99217.19;5098423;27;45427;-53
2022/11/22 01:33:19;;;;;;;;;1.00;1.00;;;;;7.06;71.89;99214.69;5098101;27;45386;-55
2022/11/22 01:35:45;;;;;;;;;1.50;1.00;;;;;7.07;70.68;99205.78;5098403;27;46014;-54
2022/11/22 01:38:10;;;;;;;;;1.00;0.00;;;;;7.06;71.27;99200.66;5098625;27;45376;-52
2022/11/22 01:40:36;;;;;;;;;2.50;2.50;;;;;7.03;71.39;99200.97;5097823;27;45547;-56
2022/11/22 01:43:03;;;;;;;;;5.00;1.00;;;;;7.00;71.50;99205.63;5097315;27;47140;-54
2022/11/22 01:45:28;;;;;;;;;5.33;1.00;;;;;7.04;72.08;99207.91;5097831;27;45424;-57
2022/11/22 01:48:01;;;;;;;;;2.00;1.50;;;;;7.02;71.69;99208.09;5098175;27;45393;-54
2022/11/22 01:50:30;;;;;;;;;1.75;1.75;;;;;6.93;71.75;99196.66;5098264;27;45372;-53
2022/11/22 01:53:01;;;;;;;;;1.00;1.00;;;;;7.00;72.01;99216.19;5097923;27;46416;-54
2022/11/22 01:55:26;;;;;;;;;4.75;1.00;;;;;6.93;72.06;99206.41;5097666;27;45263;-55
2022/11/22 01:57:52;;;;;;;;;3.00;1.75;;;;;6.98;71.57;99215.50;5098021;27;45284;-56
2022/11/22 02:00:18;;;;;;;;;5.25;3.00;;;;;6.99;71.87;99216.31;5098220;27;45364;-53
2022/11/22 02:02:45;;;;;;;;;1.50;1.25;;;;;6.96;71.57;99206.91;5097898;27;45362;-56
2022/11/22 02:05:15;;;;;;;;;2.50;1.00;;;;;6.95;72.64;99199.13;5098001;27;45373;-56
2022/11/22 02:07:51;;;;;;;;;0.00;0.00;;;;;6.95;72.69;99200.00;5097802;27;45536;-55
2022/11/22 02:10:19;;;;;;;;;1.00;1.00;;;;;6.97;72.17;99195.34;5098045;27;45275;-54
2022/11/22 02:12:44;;;;;;;;;3.50;1.00;;;;;6.99;72.49;99195.19;5097895;27;46288;-53
2022/11/22 02:15:11;;;;;;;;;4.25;1.00;;;;;6.96;72.00;99180.50;5097786;27;45199;-55
2022/11/22 02:17:36;;;;;;;;;7.50;1.00;;;;;6.98;72.01;99182.94;5098029;27;45297;-55
2022/11/22 02:20:02;;;;;;;;;1.25;1.00;;;;;6.82;72.30;99157.31;5097721;27;45329;-52
2022/11/22 02:22:43;;;;;;;;;4.25;2.00;;;;;6.98;72.60;99172.38;5097422;27;47509;-57
2022/11/22 02:25:20;;;;;;;;;0.00;0.00;;;;;6.99;72.65;99182.81;5096153;27;45362;-54
2022/11/22 02:27:45;;;;;;;;;2.00;0.25;;;;;6.97;72.63;99176.84;5098113;27;45401;-55
2022/11/22 02:30:11;;;;;;;;;3.25;1.50;;;;;7.02;72.99;99184.28;5097739;27;45305;-55
2022/11/22 02:32:36;;;;;;;;;1.00;1.00;;;;;7.03;72.60;99171.88;5097770;27;45536;-54
2022/11/22 02:35:15;;;;;;;;;0.00;0.00;;;;;7.03;72.25;99174.53;5097656;27;45485;-54
2022/11/22 02:37:40;;;;;;;;;5.00;0.50;;;;;7.03;72.44;99167.44;5097492;27;45331;-50
2022/11/22 02:40:08;;;;;;;;;4.33;0.33;;;;;7.05;72.70;99160.19;5097307;27;45449;-55
2022/11/22 02:42:34;;;;;;;;;2.00;0.00;;;;;7.08;72.90;99175.72;5097091;27;46667;-55
2022/11/22 02:45:00;;;;;;;;;0.00;0.00;;;;;7.08;72.41;99169.59;5095520;27;45448;-53
2022/11/22 02:47:25;;;;;;;;;0.67;0.67;;;;;7.10;72.98;99179.03;5097107;27;45590;-51
2022/11/22 02:49:54;;;;;;;;;4.25;1.50;;;;;7.09;72.14;99174.72;5097552;27;45335;-54
2022/11/22 02:52:19;;;;;;;;;0.00;0.00;;;;;7.09;72.78;99171.25;5097356;27;45408;-53
2022/11/22 02:54:45;;;;;;;;;1.67;0.00;;;;;7.08;72.92;99165.16;5100666;27;45324;-55
2022/11/22 02:57:10;;;;;;;;;1.00;1.00;;;;;7.07;72.79;99152.91;5100875;27;45334;-54
2022/11/22 02:59:35;;;;;;;;;1.50;0.00;;;;;7.09;73.25;99152.75;5099430;27;45431;-53
2022/11/22 03:02:01;;;;;;;;;2.00;0.00;;;;;7.10;72.62;99152.56;5100637;27;46992;-55
2022/11/22 03:04:26;;;;;;;;;1.33;0.00;;;;;7.16;72.39;99153.72;5100524;27;45288;-55
2022/11/22 03:06:54;;;;;;;;;4.00;1.00;;;;;7.16;73.07;99141.34;5100561;27;45319;-55
2022/11/22 03:09:19;;;;;;;;;1.33;0.00;;;;;7.16;73.59;99138.72;5100838;27;45379;-55
2022/11/22 03:11:46;;;;;;;;;0.00;0.00;;;;;7.17;72.93;99139.53;5100239;27;45536;-52
2022/11/22 03:14:15;;;;;;;;;0.00;0.00;;;;;7.20;72.61;99147.13;5100464;27;45460;-57
2022/11/22 03:16:41;;;;;;;;;1.00;0.00;;;;;7.19;72.76;99135.72;5100597;27;45801;-55
2022/11/22 03:19:07;;;;;;;;;1.25;0.75;;;;;7.19;73.32;99121.69;5100623;27;45540;-55
2022/11/22 03:21:32;;;;;;;;;1.00;0.00;;;;;7.19;72.51;99127.78;5100516;27;46314;-54
2022/11/22 03:23:57;;;;;;;;;3.50;1.00;;;;;7.18;73.88;99120.84;5100635;27;45179;-53
2022/11/22 03:26:23;;;;;;;;;1.50;1.00;;;;;7.19;72.46;99119.84;5100452;27;45267;-56
2022/11/22 03:28:48;;;;;;;;;0.00;0.00;;;;;7.17;72.93;99113.09;5100654;27;45178;-52
2022/11/22 03:31:13;;;;;;;;;2.67;1.00;;;;;7.19;73.42;99121.69;5100248;27;46396;-55
2022/11/22 03:33:39;;;;;;;;;0.33;0.33;;;;;7.19;73.88;99121.69;5100090;27;45332;-54
2022/11/22 03:36:04;;;;;;;;;0.33;0.00;;;;;7.18;73.61;99115.56;5100282;27;45256;-54
2022/11/22 03:38:30;;;;;;;;;0.33;0.33;;;;;7.19;73.16;99111.09;5100419;27;45390;-53
2022/11/22 03:40:56;;;;;;;;;1.67;1.00;;;;;7.21;73.06;99122.34;5099846;27;45463;-56
2022/11/22 03:43:22;;;;;;;;;1.67;0.00;;;;;7.21;73.98;99125.00;5100003;27;45430;-54
2022/11/22 03:45:48;;;;;;;;;1.00;1.00;;;;;7.23;73.03;99129.13;5099908;27;45317;-56
2022/11/22 03:48:13;;;;;;;;;0.00;0.00;;;;;7.23;73.49;99134.41;5100343;27;45358;-55
2022/11/22 03:50:39;;;;;;;;;1.00;1.00;;;;;7.26;73.17;99138.56;5099854;27;47192;-53
2022/11/22 03:53:04;;;;;;;;;2.00;1.00;;;;;7.25;73.16;99123.69;5099766;27;45291;-54
2022/11/22 03:55:30;;;;;;;;;0.67;0.33;;;;;7.28;73.37;99120.69;5100029;27;45393;-52
2022/11/22 03:57:55;;;;;;;;;2.00;0.67;;;;;7.30;74.55;99126.66;5099882;27;45394;-53
2022/11/22 04:00:21;;;;;;;;;2.00;1.00;;;;;7.32;74.01;99124.66;5099640;27;45426;-53
2022/11/22 04:02:46;;;;;;;;;2.00;2.00;;;;;7.36;73.50;99133.09;5099698;27;45335;-53
2022/11/22 04:05:11;;;;;;;;;2.33;1.00;;;;;7.36;73.61;99127.78;5098756;27;45453;-54
2022/11/22 04:07:37;;;;;;;;;0.00;0.00;;;;;7.37;74.17;99124.16;5099824;27;45264;-54
2022/11/22 04:10:03;;;;;;;;;0.33;0.00;;;;;7.37;73.73;99132.91;5099472;27;47181;-53
2022/11/22 04:12:29;;;;;;;;;0.00;0.00;;;;;7.39;74.51;99125.66;5099447;27;45427;-53
2022/11/22 04:15:07;;;;;;;;;1.67;1.67;;;;;7.41;74.31;99113.06;5099591;27;45256;-57
2022/11/22 04:17:46;;;;;;;;;2.00;1.00;;;;;7.43;73.76;99118.22;5099710;27;45319;-54
2022/11/22 04:23:00;;;;;;;;;0.00;0.00;;;;;7.49;74.16;99125.47;5099307;27;45330;-54
2022/11/22 04:25:28;;;;;;;;;1.00;1.00;;;;;7.49;74.77;99117.53;5099650;27;45268;-56
2022/11/22 04:27:53;;;;;;;;;4.00;1.00;;;;;7.47;73.76;99103.66;5099407;27;45294;-54
2022/11/22 04:30:19;;;;;;;;;2.00;0.00;;;;;7.49;74.07;99117.53;5098751;27;46196;-53
2022/11/22 04:32:45;;;;;;;;;4.33;0.67;;;;;7.49;74.03;99096.38;5099230;27;45417;-53
2022/11/22 04:35:12;;;;;;;;;3.67;1.00;;;;;7.54;74.47;99098.50;5099211;27;45829;-54
2022/11/22 04:37:38;;;;;;;;;2.00;2.00;;;;;7.58;73.49;99097.19;5099372;27;45315;-54
2022/11/22 04:40:04;;;;;;;;;4.00;0.00;;;;;7.58;74.74;99091.88;5099103;27;46148;-54
2022/11/22 04:45:13;;;;;;;;;0.67;0.67;;;;;7.59;73.93;99089.09;5099064;27;45264;-55
2022/11/22 04:53:06;;;;;;;;;1.67;0.00;;;;;7.63;73.97;99094.88;5098845;27;45410;-53
2022/11/22 04:55:31;;;;;;;;;2.67;1.00;;;;;7.59;73.98;99080.34;5098817;27;45322;-54
2022/11/22 04:57:56;;;;;;;;;0.00;0.00;;;;;7.63;73.88;99089.59;5099197;27;45423;-54
2022/11/22 05:00:22;;;;;;;;;2.67;0.00;;;;;7.64;74.62;99089.41;5098711;27;46329;-53
2022/11/22 05:02:47;;;;;;;;;0.00;0.00;;;;;7.65;73.64;99090.22;5098796;27;45326;-55
2022/11/22 05:05:12;;;;;;;;;2.00;2.00;;;;;7.65;74.50;99099.00;5098910;27;45331;-54
2022/11/22 05:07:38;;;;;;;;;1.00;1.00;;;;;7.65;74.05;99096.34;5098935;27;45389;-55
2022/11/22 05:10:04;;;;;;;;;0.00;0.00;;;;;7.64;74.14;99092.06;5098850;27;45191;-54
2022/11/22 05:12:29;;;;;;;;;2.00;0.67;;;;;7.67;74.02;99098.84;5098497;27;45509;-54
2022/11/22 05:14:54;;;;;;;;;0.00;0.00;;;;;7.68;74.10;99093.38;5098470;27;45294;-52
2022/11/22 05:17:20;;;;;;;;;4.67;0.00;;;;;7.68;73.72;99085.44;5098702;27;45495;-53
2022/11/22 05:19:45;;;;;;;;;5.00;0.33;;;;;7.70;74.31;99082.59;5097116;27;46320;-51
2022/11/22 05:22:10;;;;;;;;;0.67;0.67;;;;;7.72;74.47;99086.75;5098275;27;45376;-54
2022/11/22 05:24:36;;;;;;;;;2.00;0.33;;;;;7.73;73.40;99080.44;5098491;27;45291;-53
2022/11/22 05:27:01;;;;;;;;;0.33;0.33;;;;;7.76;73.81;99079.31;5098621;27;45228;-55
2022/11/22 05:29:26;;;;;;;;;2.00;2.00;;;;;7.78;73.57;99084.41;5098263;27;45493;-55
2022/11/22 05:31:52;;;;;;;;;0.67;0.67;;;;;7.70;73.49;99074.66;5098387;27;45282;-55
2022/11/22 05:34:17;;;;;;;;;1.33;1.00;;;;;7.78;73.80;99082.59;5098558;27;45360;-53
2022/11/22 05:36:42;;;;;;;;;1.00;1.00;;;;;7.81;73.63;99089.38;5098438;27;45338;-54
2022/11/22 05:39:08;;;;;;;;;2.00;1.00;;;;;7.81;74.26;99084.09;5098197;27;45421;-54
2022/11/22 05:41:33;;;;;;;;;1.00;0.00;;;;;7.83;74.86;99087.38;5097999;27;45388;-54
2022/11/22 05:43:59;;;;;;;;;0.00;0.00;;;;;7.83;75.46;99092.66;5098264;27;45655;-53
2022/11/22 05:46:29;;;;;;;;;1.33;1.00;;;;;7.85;75.40;99093.34;5098029;27;45396;-53
2022/11/22 05:48:56;;;;;;;;;0.00;0.00;;;;;7.77;75.84;99080.13;5097970;27;45257;-53
2022/11/22 05:51:28;;;;;;;;;0.67;0.00;;;;;7.86;75.79;99102.94;5097872;27;45252;-54
2022/11/22 05:53:53;;;;;;;;;0.00;0.00;;;;;7.87;75.17;99107.22;5098023;27;45447;-54
2022/11/22 05:56:21;;;;;;;;;0.33;0.33;;;;;7.83;76.21;99111.19;5098034;27;45356;-52
2022/11/22 05:58:48;;;;;;;;;1.00;0.00;;;;;7.85;75.76;99107.41;5097833;27;45464;-54
2022/11/22 06:01:18;;;;;;;;;0.00;0.00;;;;;7.87;75.36;99110.69;5097993;27;45557;-54
2022/11/22 06:03:44;;;;;;;;;3.33;0.00;;;;;7.89;76.49;99115.84;5096570;27;45335;-55
2022/11/22 06:06:10;;;;;;;;;2.00;0.00;;;;;7.91;75.87;99108.53;5098181;27;45203;-55
2022/11/22 06:08:39;;;;;;;;;2.00;1.00;;;;;7.92;76.10;99110.19;5097636;27;45958;-56
2022/11/22 06:11:06;;;;;;;;;0.00;0.00;;;;;7.90;76.15;99105.06;5097576;27;45304;-55
2022/11/22 06:13:33;;;;;;;;;0.67;0.67;;;;;7.92;75.96;99096.94;5097751;27;45325;-54
2022/11/22 06:15:59;;;;;;;;;1.33;0.00;;;;;7.93;76.27;99098.63;5097809;27;45232;-56
2022/11/22 06:18:24;;;;;;;;;4.00;0.00;;;;;7.95;76.91;99083.38;5097583;27;46219;-57
2022/11/22 06:20:50;;;;;;;;;2.00;0.00;;;;;7.94;76.71;99087.84;5097820;27;45284;-53
2022/11/22 06:23:15;;;;;;;;;0.00;0.00;;;;;7.94;76.78;99092.31;5097581;27;45299;-53
2022/11/22 06:25:40;;;;;;;;;0.33;0.33;;;;;7.93;76.13;99093.31;5096696;27;45628;-54
2022/11/22 06:28:06;;;;;;;;;4.00;1.00;;;;;7.92;76.07;99096.94;5098544;27;46176;-52
2022/11/22 06:30:31;;;;;;;;;0.00;0.00;;;;;7.94;76.85;99095.78;5101345;27;45400;-55
2022/11/22 06:32:57;;;;;;;;;0.67;0.67;;;;;7.94;75.90;99103.72;5101137;27;45347;-55
2022/11/22 06:35:22;;;;;;;;;1.00;1.00;;;;;7.93;77.37;99101.25;5101357;27;45431;-54
2022/11/22 06:37:47;;;;;;;;;2.67;1.00;;;;;7.94;77.02;99113.50;5101205;27;47069;-53
2022/11/22 06:40:14;;;;;;;;;0.00;0.00;;;;;7.93;77.01;99104.72;5101426;27;45372;-55
2022/11/22 06:42:39;;;;;;;;;0.00;0.00;;;;;7.94;76.68;99105.56;5101421;27;45369;-54
2022/11/22 06:45:05;;;;;;;;;0.00;0.00;;;;;7.93;76.37;99101.25;5101391;27;45386;-56
2022/11/22 06:47:30;;;;;;;;;1.00;0.00;;;;;7.94;76.15;99105.56;5101112;27;46093;-55
2022/11/22 06:49:56;;;;;;;;;0.33;0.00;;;;;7.95;76.84;99101.91;5101254;27;45531;-55
2022/11/22 06:52:21;;;;;;;;;0.00;0.00;;;;;7.95;76.38;99109.84;5101482;27;45611;-54
2022/11/22 06:54:46;;;;;;;;;1.00;0.00;;;;;7.93;76.11;99090.66;5102010;27;45290;-49
2022/11/22 06:57:13;;;;;;;;;0.00;0.00;;;;;7.90;76.79;99093.66;5101175;27;47068;-54
2022/11/22 06:59:38;;;;;;;;;0.00;0.00;;;;;7.97;76.83;99106.03;5100836;27;45556;-51
2022/11/22 07:02:03;;;;;;;;;0.67;0.67;;;;;7.97;76.97;99103.41;5100845;27;45306;-51
2022/11/22 07:04:29;;;;;;;;;0.00;0.00;;;;;8.04;76.46;99115.94;5100899;27;45413;-53
2022/11/22 07:06:54;;;;;;;;;0.00;0.00;;;;;8.04;76.87;99116.75;5100648;27;46569;-55
2022/11/22 07:09:19;;;;;;;;;2.00;0.00;;;;;8.08;76.23;99118.06;5100396;27;45222;-51
2022/11/22 07:11:45;;;;;;;;;2.00;0.00;;;;;8.08;76.73;99120.72;5100534;27;45353;-53
2022/11/22 07:14:10;;;;;;;;;1.00;1.00;;;;;8.11;76.75;99125.69;5100790;27;45535;-51
2022/11/22 07:16:37;;;;;;;;;0.67;0.00;;;;;8.12;75.91;99129.97;5100316;27;47224;-53
2022/11/22 07:19:03;;;;;;;;;0.00;0.00;;;;;8.14;76.39;99124.53;5100457;27;45492;-53
2022/11/22 07:21:28;;;;;;;;;0.00;0.00;;;;;8.19;76.12;99130.97;5100404;27;45431;-53
2022/11/22 07:23:55;;;;;;;;;0.00;0.00;;;;;8.22;76.30;99143.88;5100620;27;45448;-52
2022/11/22 07:26:21;;;;;;;;;0.00;0.00;;;;;8.23;76.30;99137.56;5100415;27;47076;-53
2022/11/22 07:28:47;;;;;;;;;4.00;1.67;;;;;8.22;76.30;99138.56;5098646;27;45377;-54
2022/11/22 07:31:14;;;;;;;;;0.00;0.00;;;;;8.26;75.49;99144.38;5100458;27;45357;-53
2022/11/22 07:33:39;;;;;;;;;2.67;0.00;;;;;8.29;75.42;99151.13;5100579;27;45417;-54
2022/11/22 07:36:14;;;;;;;;;0.00;0.00;;;;;8.29;75.70;99148.47;5099976;27;45338;-52
2022/11/22 07:38:39;;;;;;;;;0.67;0.33;;;;;8.31;75.23;99144.66;5098855;27;45746;-53
2022/11/22 07:41:06;;;;;;;;;1.00;1.00;;;;;8.30;75.25;99153.63;5097239;27;45517;-52
2022/11/22 07:43:32;;;;;;;;;2.33;0.00;;;;;8.33;75.74;99168.34;5098548;27;45495;-54
2022/11/22 07:46:30;;;;;;;;;1.00;0.00;;;;;8.33;75.77;99173.63;5099106;27;46184;-51
2022/11/22 07:49:00;;;;;;;;;0.00;0.00;;;;;8.36;75.83;99162.69;5099408;27;45338;-53
2022/11/22 07:51:26;;;;;;;;;1.33;1.00;;;;;8.34;75.40;99154.09;5099997;27;45246;-53
2022/11/22 07:53:51;;;;;;;;;0.00;0.00;;;;;8.34;75.14;99156.72;5100067;27;45423;-58
2022/11/22 07:56:17;;;;;;;;;0.00;0.00;;;;;8.34;75.21;99165.50;5099777;27;46264;-51
2022/11/22 07:58:42;;;;;;;;;0.00;0.00;;;;;8.33;74.85;99161.22;5099657;27;45239;-54
2022/11/22 08:01:11;;;;;;;;;0.00;0.00;;;;;8.36;74.99;99165.34;5099698;27;45335;-52
2022/11/22 08:03:36;;;;;;;;;0.00;0.00;;;;;8.36;74.96;99173.28;5100120;27;45256;-53
2022/11/22 08:06:04;;;;;;;;;0.33;0.00;;;;;8.39;74.82;99165.06;5099467;27;47006;-54
2022/11/22 08:08:29;;;;;;;;;0.00;0.00;;;;;8.38;75.28;99166.84;5099702;27;45459;-54
2022/11/22 08:10:55;;;;;;;;;1.00;0.00;;;;;8.38;75.66;99168.66;5099621;27;45413;-53
2022/11/22 08:13:21;;;;;;;;;1.33;0.00;;;;;8.35;75.92;99164.53;5099633;27;45393;-52
2022/11/22 08:15:48;;;;;;;;;1.00;1.00;;;;;8.40;75.41;99172.81;5099540;27;46285;-53
2022/11/22 08:18:14;;;;;;;;;2.00;0.00;;;;;8.40;75.76;99170.16;5098202;27;45476;-54
2022/11/22 08:20:39;;;;;;;;;0.00;0.00;;;;;8.42;75.92;99177.94;5099648;27;45335;-53
2022/11/22 08:23:04;;;;;;;;;4.00;1.00;;;;;8.42;75.59;99175.28;5099634;27;45581;-54
2022/11/22 08:25:30;;;;;;;;;0.00;0.00;;;;;8.45;75.73;99177.59;5099080;27;46614;-52
2022/11/22 08:27:55;;;;;;;;;1.00;1.00;;;;;8.46;76.30;99188.03;5099272;27;45287;-53
2022/11/22 08:30:20;;;;;;;;;5.00;1.00;;;;;8.45;76.09;99175.78;5099213;27;45364;-54
2022/11/22 08:32:46;;;;;;;;;1.67;0.00;;;;;8.49;75.91;99186.84;5099600;27;45454;-53
2022/11/22 08:35:11;;;;;;;;;0.00;0.00;;;;;8.50;75.93;99183.19;5099040;27;46153;-54
2022/11/22 08:37:37;;;;;;;;;0.00;0.00;;;;;8.54;76.49;99175.75;5098942;27;45364;-52
2022/11/22 08:40:02;;;;;;;;;0.67;0.33;;;;;8.56;76.17;99189.66;5099293;27;45460;-54
2022/11/22 08:42:28;;;;;;;;;0.00;0.00;;;;;8.58;75.91;99191.13;5099101;27;45291;-52
2022/11/22 08:44:54;;;;;;;;;6.33;1.67;;;;;8.57;76.20;99193.97;5098748;27;47001;-52
2022/11/22 08:47:19;;;;;;;;;0.67;0.67;;;;;8.59;76.53;99194.59;5098734;27;45296;-54
2022/11/22 08:49:45;;;;;;;;;2.00;0.00;;;;;8.57;76.72;99194.78;5098728;27;45379;-51
2022/11/22 08:52:10;;;;;;;;;0.33;0.00;;;;;8.59;76.83;99199.91;5098843;27;45295;-51
2022/11/22 08:54:36;;;;;;;;;4.67;0.00;;;;;8.62;76.01;99203.03;5098690;27;46049;-54
2022/11/22 08:57:01;;;;;;;;;2.33;1.00;;;;;8.64;76.30;99193.09;5098955;27;45473;-52
2022/11/22 08:59:26;;;;;;;;;2.33;1.00;;;;;8.56;76.44;99168.47;5114666;27;45498;-53
2022/11/22 09:01:52;;;;;;;;;2.00;0.33;;;;;8.71;76.14;99202.00;5098860;27;45369;-53
2022/11/22 09:04:17;;;;;;;;;1.00;1.00;;;;;8.75;76.48;99191.88;5098619;27;45420;-53
2022/11/22 09:06:42;;;;;;;;;2.00;1.00;;;;;8.81;75.98;99191.22;5098390;27;45487;-53
2022/11/22 09:09:08;;;;;;;;;2.67;1.67;;;;;8.85;75.97;99203.13;5098871;27;45560;-51
2022/11/22 09:11:33;;;;;;;;;0.00;0.00;;;;;8.87;75.48;99201.09;5098762;27;45349;-52
2022/11/22 09:13:59;;;;;;;;;3.00;2.00;;;;;8.85;75.88;99183.72;5098141;27;47085;-53
2022/11/22 09:16:27;;;;;;;;;2.67;1.67;;;;;8.91;75.89;99206.91;5098618;27;45441;-54
2022/11/22 09:18:53;;;;;;;;;2.00;2.00;;;;;8.94;75.79;99204.72;5098686;27;45415;-49
2022/11/22 09:21:19;;;;;;;;;1.00;1.00;;;;;9.03;75.88;99200.19;5098781;27;45342;-54
2022/11/22 09:23:47;;;;;;;;;1.00;0.67;;;;;9.18;75.51;99195.78;5098321;27;45992;-52
2022/11/22 09:26:16;;;;;;;;;1.33;1.00;;;;;9.23;74.84;99206.72;5098180;27;45479;-54
2022/11/22 09:28:42;;;;;;;;;2.00;2.00;;;;;9.26;73.94;99200.22;5098407;27;45263;-54
2022/11/22 09:31:14;;;;;;;;;2.67;2.67;;;;;9.27;74.59;99211.66;5098232;27;45383;-53
2022/11/22 09:33:43;;;;;;;;;2.67;1.00;;;;;9.26;74.03;99192.25;5095582;27;47194;-54
2022/11/22 09:36:13;;;;;;;;;3.67;3.00;;;;;9.59;74.21;99206.13;5095626;27;45629;-52
2022/11/22 09:38:40;;;;;;;;;3.00;0.00;;;;;10.12;72.90;99227.44;5095408;27;45670;-52
2022/11/22 09:41:14;;;;;;;;;3.67;2.00;;;;;10.31;71.96;99226.91;5095590;27;45436;-51
2022/11/22 09:44:09;;;;;;;;;0.00;0.00;;;;;10.56;71.12;99210.69;5095072;27;45765;-54
2022/11/22 09:46:41;;;;;;;;;1.00;1.00;;;;;11.01;70.27;99220.28;5094833;27;45255;-53
2022/11/22 09:49:26;;;;;;;;;3.00;1.67;;;;;11.53;68.58;99221.03;5095493;27;45515;-53
2022/11/22 09:52:02;;;;;;;;;3.33;1.00;;;;;11.84;66.97;99197.59;5095540;27;45416;-54
2022/11/22 09:54:42;;;;;;;;;5.33;1.67;;;;;12.18;66.86;99202.16;5095058;27;45510;-53
2022/11/22 09:57:15;;;;;;;;;2.67;0.67;;;;;12.36;65.17;99209.66;5094821;27;45351;-53
2022/11/22 09:59:45;;;;;;;;;0.67;0.00;;;;;12.52;64.11;99205.03;5095083;27;45523;-53
2022/11/22 10:02:24;;;;;;;;;1.00;1.00;;;;;12.63;63.66;99207.13;5094180;27;45519;-52
2022/11/22 10:04:59;;;;;;;;;2.33;0.33;;;;;12.62;63.54;99203.63;5094914;27;45426;-52
2022/11/22 10:07:36;;;;;;;;;0.00;0.00;;;;;12.56;63.71;99201.78;5094750;27;45507;-55
2022/11/22 10:10:12;;;;;;;;;5.00;1.00;;;;;12.54;64.25;99203.81;5094782;27;45479;-52
2022/11/22 10:13:10;;;;;;;;;3.00;0.33;;;;;12.53;63.69;99223.50;5095445;27;45553;-52
2022/11/22 10:16:13;;;;;;;;;3.00;1.00;;;;;12.63;63.74;99213.28;5094898;27;46187;-53
2022/11/22 10:19:00;;;;;;;;;6.00;2.00;;;;;12.69;63.57;99219.69;5091160;27;45566;-52
2022/11/22 10:21:26;;;;;;;;;1.00;1.00;;;;;12.82;62.61;99213.59;5094944;27;45468;-54
2022/11/22 10:23:52;;;;;;;;;1.33;1.33;;;;;12.96;63.05;99220.63;5095217;27;45431;-54
2022/11/22 10:26:31;;;;;;;;;2.67;1.67;;;;;13.02;62.47;99219.00;5094748;27;46552;-54
2022/11/22 10:29:05;;;;;;;;;3.33;0.00;;;;;13.16;62.27;99226.03;5094489;27;45347;-51
2022/11/22 10:31:46;;;;;;;;;2.00;1.00;;;;;13.12;62.02;99225.63;5094585;27;45440;-53
2022/11/22 10:34:57;;;;;;;;;2.33;0.33;;;;;13.20;62.32;99236.13;5094489;27;45251;-54
2022/11/22 10:37:53;;;;;;;;;2.00;0.00;;;;;13.46;62.15;99237.25;5093867;27;46559;-54
2022/11/22 10:40:39;;;;;;;;;1.00;1.00;;;;;13.91;60.45;99232.19;5094592;27;45392;-54
2022/11/22 10:43:05;;;;;;;;;7.67;0.00;;;;;13.82;59.36;99236.91;5094891;27;45577;-54
2022/11/22 10:45:42;;;;;;;;;0.00;0.00;;;;;13.61;59.94;99237.91;5094378;27;45493;-54
2022/11/22 10:48:11;;;;;;;;;6.67;1.00;;;;;13.51;59.84;99241.97;5094870;27;46256;-53
2022/11/22 10:50:45;;;;;;;;;1.00;1.00;;;;;13.41;59.58;99243.19;5094226;27;45572;-55
2022/11/22 10:53:26;;;;;;;;;2.33;2.00;;;;;13.35;60.31;99229.81;5094854;27;45564;-52
2022/11/22 10:56:20;;;;;;;;;2.00;1.00;;;;;14.01;59.08;99240.59;5094836;27;45373;-52
2022/11/22 10:59:04;;;;;;;;;1.33;1.33;;;;;14.00;58.63;99238.97;5094049;27;45498;-53
2022/11/22 11:01:45;;;;;;;;;0.67;0.67;;;;;13.88;58.08;99241.41;5094115;27;45354;-53
2022/11/22 11:04:12;;;;;;;;;2.67;2.00;;;;;13.71;57.73;99235.66;5094564;27;45330;-53
2022/11/22 11:06:46;;;;;;;;;3.00;2.00;;;;;13.63;58.92;99238.50;5094383;27;45485;-52
2022/11/22 11:09:19;;;;;;;;;3.67;1.00;;;;;13.63;58.50;99235.03;5093941;27;45500;-51
2022/11/22 11:11:46;;;;;;;;;5.67;3.33;;;;;13.67;58.52;99228.25;5094132;27;45383;-50
2022/11/22 11:14:38;;;;;;;;;3.67;0.67;;;;;13.66;58.89;99238.13;5095872;27;45491;-52
2022/11/22 11:17:05;;;;;;;;;1.00;0.00;;;;;13.63;57.63;99243.84;5098137;27;45422;-51
2022/11/22 11:19:37;;;;;;;;;3.00;2.00;;;;;13.65;57.92;99239.16;5097386;27;45450;-53
2022/11/22 11:22:05;;;;;;;;;1.00;1.00;;;;;13.74;58.10;99250.47;5097633;27;45552;-53
2022/11/22 11:24:31;;;;;;;;;2.67;1.00;;;;;13.79;57.72;99242.66;5097995;27;45428;-52
2022/11/22 11:26:59;;;;;;;;;0.00;0.00;;;;;13.83;56.86;99243.88;5097640;27;45302;-53
2022/11/22 11:29:33;;;;;;;;;5.33;1.33;;;;;14.16;57.13;99241.22;5097523;27;45500;-51
2022/11/22 11:32:08;;;;;;;;;3.33;2.00;;;;;14.61;56.06;99233.34;5097307;27;45446;-52
2022/11/22 11:34:34;;;;;;;;;2.33;1.00;;;;;15.08;54.75;99242.06;5097977;27;45522;-51
2022/11/22 11:37:02;;;;;;;;;2.00;2.00;;;;;15.54;53.27;99243.66;5097731;27;45615;-53
2022/11/22 11:39:29;;;;;;;;;3.00;2.00;;;;;15.44;53.40;99246.84;5097352;27;45518;-52
2022/11/22 11:41:55;;;;;;;;;1.00;0.67;;;;;15.74;52.90;99251.63;5095236;27;45515;-52
2022/11/22 11:44:38;;;;;;;;;1.00;1.00;;;;;15.86;52.07;99235.66;5097397;27;45479;-51
2022/11/22 11:47:04;;;;;;;;;3.33;2.00;;;;;15.38;51.98;99241.50;5096413;27;45568;-51
2022/11/22 11:49:33;;;;;;;;;4.67;0.33;;;;;15.09;53.67;99230.31;5097148;27;46269;-49
2022/11/22 11:52:02;;;;;;;;;2.00;0.67;;;;;15.19;53.09;99214.59;5097233;27;45389;-53
2022/11/22 11:54:39;;;;;;;;;2.67;1.00;;;;;15.60;52.19;99232.09;5097284;27;45456;-51